createdAt,value
2022-11-29T00:01:15.096Z,48.05
2022-11-29T00:03:41.746Z,48.33
2022-11-29T00:06:11.960Z,39.90
2022-11-29T00:08:39.352Z,43.95
2022-11-29T00:11:08.139Z,42.58
2022-11-29T00:13:35.236Z,42.42
2022-11-29T00:16:07.484Z,39.75
2022-11-29T00:18:34.332Z,40.83
2022-11-29T00:21:05.842Z,40.55
2022-11-29T00:23:32.849Z,45.13
2022-11-29T00:26:07.787Z,45.67
2022-11-29T00:28:35.752Z,38.72
2022-11-29T00:31:23.054Z,61.00
2022-11-29T00:33:49.963Z,50.80
2022-11-29T00:36:17.213Z,48.63
2022-11-29T00:38:44.023Z,45.92
2022-11-29T00:41:11.198Z,41.55
2022-11-29T00:43:38.285Z,42.75
2022-11-29T00:46:05.854Z,45.40
2022-11-29T00:48:33.279Z,41.53
2022-11-29T00:51:00.248Z,40.53
2022-11-29T00:53:27.060Z,48.15
2022-11-29T00:55:54.265Z,42.50
2022-11-29T00:58:21.936Z,42.40
2022-11-29T01:00:49.150Z,46.83
2022-11-29T01:03:16.972Z,47.78
2022-11-29T01:05:44.301Z,46.65
2022-11-29T01:08:12.304Z,42.58
2022-11-29T01:10:39.139Z,38.92
2022-11-29T01:13:06.029Z,36.28
2022-11-29T01:15:33.160Z,42.35
2022-11-29T01:17:59.967Z,41.10
2022-11-29T01:20:27.252Z,48.50
2022-11-29T01:22:54.067Z,39.80
2022-11-29T01:25:21.127Z,43.35
2022-11-29T01:27:48.129Z,44.63
2022-11-29T01:30:15.112Z,41.50
2022-11-29T01:32:41.820Z,43.40
2022-11-29T01:35:08.895Z,41.60
2022-11-29T01:37:35.870Z,50.95
2022-11-29T01:40:02.664Z,47.42
2022-11-29T01:42:29.417Z,43.83
2022-11-29T01:45:03.249Z,39.72
2022-11-29T01:47:30.777Z,42.42
2022-11-29T01:49:57.603Z,50.28
2022-11-29T01:52:28.060Z,43.70
2022-11-29T01:54:58.035Z,46.63
2022-11-29T01:57:25.917Z,47.22
2022-11-29T02:00:00.484Z,51.47
2022-11-29T02:02:36.599Z,49.17
2022-11-29T02:05:04.591Z,47.38
2022-11-29T02:07:31.448Z,48.22
2022-11-29T02:09:58.273Z,54.40
2022-11-29T02:12:52.418Z,52.47
2022-11-29T02:15:36.572Z,61.45
2022-11-29T02:18:24.264Z,60.03
2022-11-29T02:21:28.851Z,51.35
2022-11-29T02:24:20.558Z,53.83
2022-11-29T02:26:53.350Z,44.78
2022-11-29T02:29:44.118Z,43.60
2022-11-29T02:32:48.459Z,42.83
2022-11-29T02:35:34.072Z,47.45
2022-11-29T02:38:31.889Z,52.28
2022-11-29T02:41:17.119Z,52.63
2022-11-29T02:44:00.787Z,51.72
2022-11-29T02:47:04.994Z,49.88
2022-11-29T02:50:10.902Z,56.10
2022-11-29T02:53:06.868Z,49.15
2022-11-29T02:56:08.193Z,66.53
2022-11-29T02:58:58.472Z,56.30
2022-11-29T03:01:41.750Z,66.40
2022-11-29T03:04:32.733Z,60.30
2022-11-29T03:07:34.728Z,61.17
2022-11-29T03:12:50.137Z,66.97
2022-11-29T03:15:30.588Z,77.97
2022-11-29T03:18:22.549Z,73.63
2022-11-29T03:21:32.406Z,69.72
2022-11-29T03:24:04.744Z,83.30
2022-11-29T03:26:49.291Z,85.85
2022-11-29T03:29:26.887Z,84.38
2022-11-29T03:32:13.696Z,76.88
2022-11-29T03:35:04.244Z,78.05
2022-11-29T03:37:53.076Z,64.43
2022-11-29T03:40:31.278Z,84.28
2022-11-29T03:43:10.623Z,87.35
2022-11-29T03:45:45.361Z,107.20
2022-11-29T03:48:18.728Z,92.78
2022-11-29T03:50:54.856Z,85.90
2022-11-29T03:53:36.917Z,73.07
2022-11-29T03:56:22.962Z,88.55
2022-11-29T03:58:49.547Z,92.90
2022-11-29T04:01:52.587Z,91.82
2022-11-29T04:04:37.236Z,95.97
2022-11-29T04:07:41.839Z,100.53
2022-11-29T04:10:47.187Z,83.05
2022-11-29T04:13:34.122Z,94.40
2022-11-29T04:16:22.865Z,98.70
2022-11-29T04:19:23.433Z,90.60
2022-11-29T04:22:17.876Z,96.10
2022-11-29T04:25:12.245Z,107.10
2022-11-29T04:27:49.249Z,100.40
2022-11-29T04:30:21.621Z,96.40
2022-11-29T04:32:57.124Z,87.63
2022-11-29T04:35:34.370Z,96.70
2022-11-29T04:38:19.459Z,111.93
2022-11-29T04:41:07.687Z,101.43
2022-11-29T04:44:02.453Z,99.90
2022-11-29T04:46:39.383Z,85.22
2022-11-29T04:49:23.749Z,101.53
2022-11-29T04:51:53.516Z,113.95
2022-11-29T04:54:26.123Z,101.40
2022-11-29T04:57:16.690Z,119.47
2022-11-29T05:00:15.410Z,117.85
2022-11-29T05:02:53.190Z,82.85
2022-11-29T05:05:47.648Z,97.57
2022-11-29T05:08:32.565Z,95.20
2022-11-29T05:11:11.897Z,104.70
2022-11-29T05:14:03.341Z,104.10
2022-11-29T05:16:52.797Z,108.35
2022-11-29T05:19:19.415Z,114.78
2022-11-29T05:22:00.947Z,113.15
2022-11-29T05:25:00.000Z,113.57
2022-11-29T05:27:37.693Z,99.28
2022-11-29T05:30:19.267Z,97.38
2022-11-29T05:32:59.554Z,92.10
2022-11-29T05:35:53.262Z,89.70
2022-11-29T05:38:29.021Z,94.47
2022-11-29T05:41:23.066Z,93.70
2022-11-29T05:44:00.817Z,93.90
2022-11-29T05:46:43.113Z,98.03
2022-11-29T05:49:39.306Z,89.53
2022-11-29T05:52:20.913Z,95.28
2022-11-29T05:55:14.870Z,95.95
2022-11-29T05:57:58.511Z,94.32
2022-11-29T06:00:29.577Z,91.00
2022-11-29T06:03:05.587Z,107.35
2022-11-29T06:05:34.877Z,92.28
2022-11-29T06:08:19.193Z,101.53
2022-11-29T06:11:06.374Z,95.82
2022-11-29T06:13:51.032Z,100.95
2022-11-29T06:16:47.768Z,101.07
2022-11-29T06:19:53.190Z,93.80
2022-11-29T06:22:33.246Z,101.95
2022-11-29T06:25:24.177Z,95.25
2022-11-29T06:28:17.031Z,99.55
2022-11-29T06:31:17.573Z,104.38
2022-11-29T06:33:59.858Z,90.50
2022-11-29T06:36:58.054Z,87.63
2022-11-29T06:39:25.050Z,99.72
2022-11-29T06:41:51.749Z,104.38
2022-11-29T06:44:18.839Z,84.68
2022-11-29T06:46:57.452Z,103.28
2022-11-29T06:49:27.214Z,109.35
2022-11-29T06:52:10.923Z,105.10
2022-11-29T06:54:58.406Z,102.13
2022-11-29T06:57:55.410Z,111.45
2022-11-29T07:00:54.108Z,93.38
2022-11-29T07:03:39.205Z,98.57
2022-11-29T07:06:20.496Z,93.88
2022-11-29T07:08:52.401Z,78.50
2022-11-29T07:11:19.307Z,102.72
2022-11-29T07:13:46.232Z,96.30
2022-11-29T07:16:24.933Z,77.57
2022-11-29T07:19:11.180Z,96.63
2022-11-29T07:21:59.919Z,100.53
2022-11-29T07:24:54.908Z,100.03
2022-11-29T07:27:40.151Z,100.03
2022-11-29T07:30:07.113Z,101.70
2022-11-29T07:33:00.533Z,106.55
2022-11-29T07:36:03.169Z,95.88
2022-11-29T07:39:14.197Z,100.68
2022-11-29T07:42:10.024Z,100.15
2022-11-29T07:44:46.564Z,97.75
2022-11-29T07:47:13.822Z,98.90
2022-11-29T07:49:40.481Z,106.93
2022-11-29T07:52:07.111Z,107.90
2022-11-29T07:54:33.825Z,100.35
2022-11-29T07:57:00.452Z,115.28
2022-11-29T07:59:27.189Z,110.15
2022-11-29T08:01:54.971Z,107.60
2022-11-29T08:04:21.635Z,118.70
2022-11-29T08:06:48.302Z,114.13
2022-11-29T08:09:14.915Z,125.95
2022-11-29T08:11:41.964Z,107.95
2022-11-29T08:14:08.590Z,105.70
2022-11-29T08:16:35.820Z,107.93
2022-11-29T08:19:02.579Z,111.28
2022-11-29T08:21:29.228Z,105.90
2022-11-29T08:23:55.842Z,106.07
2022-11-29T08:26:25.596Z,98.35
2022-11-29T08:28:56.877Z,110.20
2022-11-29T08:31:23.583Z,117.72
2022-11-29T08:33:50.290Z,102.65
2022-11-29T08:36:19.813Z,110.97
2022-11-29T08:38:47.853Z,109.50
2022-11-29T08:41:16.285Z,105.40
2022-11-29T08:43:43.579Z,104.75
2022-11-29T08:46:15.303Z,113.55
2022-11-29T08:48:45.633Z,103.82
2022-11-29T08:51:12.331Z,102.55
2022-11-29T08:53:41.811Z,98.00
2022-11-29T08:57:10.244Z,93.22
2022-11-29T08:59:07.932Z,92.53
2022-11-29T09:01:34.710Z,91.53
2022-11-29T09:04:05.063Z,84.93
2022-11-29T09:06:34.359Z,94.00
2022-11-29T09:09:01.246Z,84.65
2022-11-29T09:11:30.109Z,82.47
2022-11-29T09:14:00.634Z,82.57
2022-11-29T09:16:32.238Z,87.45
2022-11-29T09:18:59.039Z,84.40
2022-11-29T09:21:27.340Z,77.28
2022-11-29T09:23:58.727Z,86.85
2022-11-29T09:26:30.897Z,81.28
2022-11-29T09:29:01.836Z,76.43
2022-11-29T09:31:30.268Z,86.40
2022-11-29T09:33:57.507Z,80.88
2022-11-29T09:36:28.419Z,85.43
2022-11-29T09:42:00.007Z,73.60
2022-11-29T09:44:53.686Z,77.72
2022-11-29T09:47:56.323Z,80.00
2022-11-29T09:50:53.909Z,84.40
2022-11-29T09:53:26.433Z,84.97
2022-11-29T09:56:32.354Z,80.85
2022-11-29T09:59:51.260Z,81.55
2022-11-29T10:02:26.567Z,77.03
2022-11-29T10:04:57.931Z,70.90
2022-11-29T10:07:40.717Z,80.88
2022-11-29T10:10:26.144Z,73.25
2022-11-29T10:12:59.813Z,81.90
2022-11-29T10:15:34.306Z,76.00
2022-11-29T10:18:21.995Z,75.88
2022-11-29T10:20:51.733Z,73.63
2022-11-29T10:23:37.284Z,76.97
2022-11-29T10:26:07.929Z,69.28
2022-11-29T10:28:36.709Z,68.85
2022-11-29T10:31:26.805Z,73.60
2022-11-29T10:33:55.662Z,67.20
2022-11-29T10:36:38.938Z,72.22
2022-11-29T10:39:30.608Z,75.90
2022-11-29T10:42:01.981Z,80.28
2022-11-29T10:44:31.280Z,70.10
2022-11-29T10:46:59.912Z,71.00
2022-11-29T10:49:28.622Z,70.88
2022-11-29T10:51:55.485Z,65.15
2022-11-29T10:54:28.803Z,72.88
2022-11-29T10:57:00.628Z,75.18
2022-11-29T10:59:29.877Z,67.18
2022-11-29T11:01:57.916Z,76.93
2022-11-29T11:04:45.219Z,78.15
2022-11-29T11:07:41.372Z,87.38
2022-11-29T11:10:26.386Z,89.78
2022-11-29T11:13:05.383Z,87.80
2022-11-29T11:15:33.142Z,87.43
2022-11-29T11:18:05.505Z,81.22
2022-11-29T11:20:35.881Z,90.03
2022-11-29T11:23:06.560Z,83.20
2022-11-29T11:25:37.058Z,89.68
2022-11-29T11:28:21.992Z,84.05
2022-11-29T11:30:57.596Z,86.75
2022-11-29T11:33:27.246Z,91.38
2022-11-29T11:36:13.460Z,107.85
2022-11-29T11:38:50.194Z,91.90
2022-11-29T11:41:50.971Z,110.18
2022-11-29T11:44:47.573Z,93.80
2022-11-29T11:47:28.403Z,87.57
2022-11-29T11:50:02.040Z,89.57
2022-11-29T11:52:56.921Z,84.82
2022-11-29T11:55:36.589Z,81.70
2022-11-29T11:58:12.093Z,92.82
2022-11-29T12:01:05.530Z,79.43
2022-11-29T12:03:36.132Z,81.18
2022-11-29T12:06:27.138Z,83.72
2022-11-29T12:09:00.882Z,69.25
2022-11-29T12:11:37.151Z,60.33
2022-11-29T12:14:06.498Z,69.55
2022-11-29T12:16:38.158Z,64.07
2022-11-29T12:21:44.734Z,60.90
2022-11-29T12:24:29.519Z,56.92
2022-11-29T12:27:00.642Z,50.25
2022-11-29T12:29:33.407Z,47.40
2022-11-29T12:32:30.601Z,56.90
2022-11-29T12:35:27.702Z,53.40
2022-11-29T12:37:57.360Z,60.88
2022-11-29T12:40:44.138Z,63.40
2022-11-29T12:43:48.920Z,57.47
2022-11-29T12:46:21.049Z,68.33
2022-11-29T12:48:57.900Z,62.88
2022-11-29T12:51:46.565Z,60.28
2022-11-29T12:54:23.553Z,66.25
2022-11-29T12:57:14.254Z,68.47
2022-11-29T12:59:52.830Z,59.78
2022-11-29T13:02:48.552Z,58.70
2022-11-29T13:05:33.806Z,66.90
2022-11-29T13:08:22.455Z,69.45
2022-11-29T13:11:04.331Z,72.15
2022-11-29T13:13:42.013Z,80.30
2022-11-29T13:16:20.219Z,82.13
2022-11-29T13:19:28.307Z,85.35
2022-11-29T13:22:21.356Z,83.53
2022-11-29T13:25:06.098Z,73.18
2022-11-29T13:27:36.809Z,84.82
2022-11-29T13:30:04.449Z,89.28
2022-11-29T13:32:35.702Z,85.40
2022-11-29T13:35:22.567Z,82.47
2022-11-29T13:37:58.411Z,98.60
2022-11-29T13:41:02.148Z,82.95
2022-11-29T13:44:10.504Z,87.18
2022-11-29T13:46:43.876Z,85.50
2022-11-29T13:49:22.320Z,92.40
2022-11-29T13:52:03.127Z,94.03
2022-11-29T13:54:32.255Z,84.57
2022-11-29T13:57:07.671Z,74.10
2022-11-29T13:59:42.830Z,64.47
2022-11-29T14:02:31.059Z,66.40
2022-11-29T14:04:58.294Z,61.47
2022-11-29T14:07:25.006Z,49.70
2022-11-29T14:10:05.692Z,55.63
2022-11-29T14:12:55.243Z,54.97
2022-11-29T14:15:31.983Z,50.85
2022-11-29T14:18:08.777Z,49.22
2022-11-29T14:20:53.840Z,52.13
2022-11-29T14:23:34.179Z,62.25
2022-11-29T14:26:00.880Z,58.20
2022-11-29T14:28:33.300Z,59.40
2022-11-29T14:31:02.323Z,59.17
2022-11-29T14:33:41.151Z,56.53
2022-11-29T14:36:19.846Z,66.70
2022-11-29T14:39:10.330Z,50.38
2022-11-29T14:41:51.385Z,62.05
2022-11-29T14:44:20.529Z,62.03
2022-11-29T14:46:48.625Z,63.30
2022-11-29T14:49:22.864Z,62.92
2022-11-29T14:52:14.248Z,66.20
2022-11-29T14:55:04.152Z,61.55
2022-11-29T14:57:49.763Z,59.47
2022-11-29T15:00:21.983Z,57.05
2022-11-29T15:02:57.843Z,73.85
2022-11-29T15:05:37.918Z,55.75
2022-11-29T15:08:38.246Z,54.05
2022-11-29T15:11:14.549Z,71.53
2022-11-29T15:14:36.560Z,54.38
2022-11-29T15:17:16.693Z,56.03
2022-11-29T15:19:57.900Z,61.45
2022-11-29T15:22:36.387Z,61.67
2022-11-29T15:25:17.677Z,65.93
2022-11-29T15:27:56.084Z,56.35
2022-11-29T15:30:30.793Z,60.63
2022-11-29T15:32:59.722Z,54.25
2022-11-29T15:35:27.149Z,55.88
2022-11-29T15:37:54.605Z,59.72
2022-11-29T15:40:26.138Z,62.95
2022-11-29T15:43:01.841Z,55.10
2022-11-29T15:45:28.479Z,53.67
2022-11-29T15:48:10.167Z,60.28
2022-11-29T15:50:37.632Z,64.18
2022-11-29T15:53:11.307Z,61.35
2022-11-29T15:55:38.200Z,54.40
2022-11-29T15:58:08.668Z,51.65
2022-11-29T16:00:36.309Z,53.67
2022-11-29T16:03:04.997Z,45.17
2022-11-29T16:05:34.987Z,46.15
2022-11-29T16:08:05.456Z,49.17
2022-11-29T16:10:40.759Z,57.13
2022-11-29T16:13:33.887Z,41.72
2022-11-29T16:16:22.375Z,46.47
2022-11-29T16:18:51.003Z,43.58
2022-11-29T16:21:29.555Z,43.90
2022-11-29T16:23:57.881Z,40.30
2022-11-29T16:26:30.473Z,42.42
2022-11-29T16:29:00.937Z,41.47
2022-11-29T16:31:36.226Z,48.40
2022-11-29T16:34:24.611Z,51.67
2022-11-29T16:37:08.680Z,54.30
2022-11-29T16:39:38.266Z,49.88
2022-11-29T16:42:16.577Z,59.28
2022-11-29T16:44:45.542Z,57.60
2022-11-29T16:47:18.849Z,55.75
2022-11-29T16:49:45.873Z,53.15
2022-11-29T16:52:27.828Z,47.08
2022-11-29T16:54:54.631Z,50.55
2022-11-29T16:57:21.514Z,58.95
2022-11-29T16:59:48.670Z,61.88
2022-11-29T17:02:15.951Z,55.05
2022-11-29T17:04:43.554Z,61.15
2022-11-29T17:07:37.575Z,70.40
2022-11-29T17:10:07.777Z,60.55
2022-11-29T17:12:34.573Z,56.33
2022-11-29T17:15:01.245Z,57.38
2022-11-29T17:17:27.856Z,59.53
2022-11-29T17:19:54.505Z,70.80
2022-11-29T17:22:21.221Z,71.05
2022-11-29T17:24:48.734Z,60.22
2022-11-29T17:27:15.529Z,65.07
2022-11-29T17:29:42.136Z,59.92
2022-11-29T17:32:08.812Z,55.05
2022-11-29T17:34:35.545Z,54.63
2022-11-29T17:37:02.179Z,69.20
2022-11-29T17:39:28.815Z,76.10
2022-11-29T17:41:55.428Z,59.95
2022-11-29T17:44:22.418Z,67.82
2022-11-29T17:46:49.266Z,67.65
2022-11-29T17:49:15.897Z,71.30
2022-11-29T17:51:57.976Z,80.32
2022-11-29T17:54:24.711Z,72.55
2022-11-29T17:56:51.785Z,77.20
2022-11-29T17:59:18.506Z,72.90
2022-11-29T18:01:47.054Z,72.68
2022-11-29T18:04:14.069Z,77.70
2022-11-29T18:06:40.772Z,75.47
2022-11-29T18:09:09.522Z,81.85
2022-11-29T18:11:46.800Z,80.25
2022-11-29T18:14:17.231Z,86.50
2022-11-29T18:16:45.551Z,84.80
2022-11-29T18:19:14.705Z,89.65
2022-11-29T18:21:41.500Z,82.00
2022-11-29T18:24:08.282Z,91.20
2022-11-29T18:26:36.648Z,94.45
2022-11-29T18:29:05.332Z,105.72
2022-11-29T18:31:35.380Z,97.93
2022-11-29T18:34:06.850Z,96.07
2022-11-29T18:36:39.592Z,94.65
2022-11-29T18:39:11.320Z,91.25
2022-11-29T18:44:10.530Z,86.50
2022-11-29T18:46:39.374Z,102.03
2022-11-29T18:49:08.009Z,82.88
2022-11-29T18:51:36.241Z,89.28
2022-11-29T18:54:03.629Z,97.35
2022-11-29T18:56:32.794Z,98.15
2022-11-29T18:59:03.408Z,99.90
2022-11-29T19:01:32.428Z,98.38
2022-11-29T19:04:00.472Z,95.25
2022-11-29T19:06:35.426Z,84.80
2022-11-29T19:09:07.128Z,83.25
2022-11-29T19:11:34.386Z,95.57
2022-11-29T19:14:04.269Z,98.90
2022-11-29T19:16:33.969Z,94.55
2022-11-29T19:19:01.356Z,94.35
2022-11-29T19:21:31.789Z,83.00
2022-11-29T19:24:01.479Z,82.30
2022-11-29T19:26:30.083Z,86.00
2022-11-29T19:28:57.801Z,77.82
2022-11-29T19:31:26.875Z,87.93
2022-11-29T19:33:54.779Z,87.53
2022-11-29T19:36:25.035Z,82.45
2022-11-29T19:38:54.205Z,81.75
2022-11-29T19:41:32.503Z,86.05
2022-11-29T19:44:05.555Z,86.70
2022-11-29T19:46:34.928Z,87.68
2022-11-29T19:49:02.756Z,79.60
2022-11-29T19:51:30.340Z,91.20
2022-11-29T19:54:03.033Z,92.03
2022-11-29T19:56:31.187Z,76.32
2022-11-29T19:59:01.257Z,85.43
2022-11-29T20:01:40.662Z,81.75
2022-11-29T20:04:08.481Z,86.28
2022-11-29T20:06:35.591Z,79.38
2022-11-29T20:09:02.787Z,92.13
2022-11-29T20:11:29.769Z,77.55
2022-11-29T20:14:01.921Z,86.35
2022-11-29T20:16:30.169Z,96.78
2022-11-29T20:18:57.600Z,95.88
2022-11-29T20:21:29.838Z,80.40
2022-11-29T20:24:05.184Z,98.20
2022-11-29T20:26:34.378Z,96.45
2022-11-29T20:29:02.166Z,108.10
2022-11-29T20:31:29.419Z,98.50
2022-11-29T20:33:59.271Z,89.78
2022-11-29T20:36:53.208Z,101.75
2022-11-29T20:39:43.608Z,103.35
2022-11-29T20:42:26.864Z,92.32
2022-11-29T20:44:59.157Z,95.40
2022-11-29T20:47:30.123Z,100.97
2022-11-29T20:49:57.602Z,81.72
2022-11-29T20:52:34.973Z,87.70
2022-11-29T20:55:02.001Z,83.10
2022-11-29T20:57:28.817Z,81.03
2022-11-29T20:59:55.552Z,88.32
2022-11-29T21:02:22.990Z,92.15
2022-11-29T21:04:49.638Z,89.65
2022-11-29T21:07:16.382Z,86.93
2022-11-29T21:09:43.072Z,81.90
2022-11-29T21:12:10.412Z,92.05
2022-11-29T21:14:37.329Z,88.82
2022-11-29T21:17:04.440Z,105.88
2022-11-29T21:19:31.463Z,84.53
2022-11-29T21:22:21.841Z,87.38
2022-11-29T21:25:00.598Z,89.07
2022-11-29T21:27:31.658Z,87.32
2022-11-29T21:29:59.024Z,99.10
2022-11-29T21:32:27.073Z,95.30
2022-11-29T21:34:53.883Z,91.60
2022-11-29T21:37:24.881Z,93.32
2022-11-29T21:39:52.893Z,108.25
2022-11-29T21:42:19.761Z,95.80
2022-11-29T21:44:46.862Z,92.13
2022-11-29T21:47:13.770Z,94.50
2022-11-29T21:49:40.703Z,97.57
2022-11-29T21:52:07.404Z,106.13
2022-11-29T21:54:34.066Z,105.95
2022-11-29T21:57:00.790Z,90.32
2022-11-29T21:59:28.019Z,103.68
2022-11-29T22:01:54.916Z,106.38
2022-11-29T22:04:21.718Z,106.40
2022-11-29T22:06:48.440Z,99.07
2022-11-29T22:09:15.086Z,107.40
2022-11-29T22:11:42.412Z,102.18
2022-11-29T22:14:15.495Z,108.40
2022-11-29T22:16:46.746Z,103.88
2022-11-29T22:19:25.014Z,109.80
2022-11-29T22:22:03.471Z,117.85
2022-11-29T22:24:32.725Z,115.18
2022-11-29T22:26:59.609Z,105.35
2022-11-29T22:29:26.431Z,121.43
2022-11-29T22:31:55.390Z,118.75
2022-11-29T22:34:25.183Z,114.78
2022-11-29T22:36:52.393Z,119.57
2022-11-29T22:39:19.191Z,132.60
2022-11-29T22:41:52.289Z,142.55
2022-11-29T22:44:21.025Z,128.90
2022-11-29T22:46:47.760Z,133.10
2022-11-29T22:49:14.601Z,121.00
2022-11-29T22:51:41.246Z,132.07
2022-11-29T22:54:10.568Z,128.32
2022-11-29T22:56:40.583Z,129.25
2022-11-29T22:59:07.674Z,124.47
2022-11-29T23:01:36.364Z,128.02
2022-11-29T23:04:06.030Z,133.75
2022-11-29T23:06:37.899Z,125.07
2022-11-29T23:09:10.420Z,131.90
2022-11-29T23:11:37.650Z,120.30
2022-11-29T23:14:04.453Z,126.57
2022-11-29T23:16:32.556Z,126.50
2022-11-29T23:19:00.148Z,119.32
2022-11-29T23:21:32.426Z,129.35
2022-11-29T23:24:02.273Z,121.03
2022-11-29T23:26:41.068Z,130.68
2022-11-29T23:29:11.273Z,132.52
2022-11-29T23:31:38.471Z,136.80
2022-11-29T23:34:05.373Z,125.88
2022-11-29T23:36:32.186Z,131.88
2022-11-29T23:38:59.078Z,138.35
2022-11-29T23:41:25.773Z,135.25
2022-11-29T23:43:52.473Z,136.10
2022-11-29T23:46:21.728Z,131.27
2022-11-29T23:48:48.556Z,141.75
2022-11-29T23:51:16.119Z,137.98
2022-11-29T23:53:43.437Z,116.85
2022-11-29T23:56:13.408Z,122.85
2022-11-29T23:58:40.276Z,129.35
